Time;durP1;ratioP1;P1;durP2;ratioP2;P2;SDS_P1;SDS_P2;PMS_P1;PMS_P2;Temp;Humidity;BMP_temperature;BMP_pressure;BME280_temperature;BME280_humidity;BME280_pressure;Samples;Min_cycle;Max_cycle;Signal;HPM_P1;HPM_P2
2023/05/16 00:01:36;;;;;;;2.57;1.30;;;21.70;58.50;;;;;;5053509;28;20194;-44
2023/05/16 00:04:12;;;;;;;2.57;0.90;;;21.70;58.50;;;;;;5050310;28;20201;-44
2023/05/16 00:06:43;;;;;;;4.37;1.47;;;21.70;58.60;;;;;;5055999;28;20640;-45
2023/05/16 00:09:16;;;;;;;4.03;1.30;;;21.70;58.70;;;;;;5064387;28;20643;-44
2023/05/16 00:11:47;;;;;;;3.37;1.10;;;21.70;58.90;;;;;;5068176;28;20201;-46
2023/05/16 00:14:20;;;;;;;4.30;1.00;;;21.70;58.70;;;;;;5061300;28;20210;-44
2023/05/16 00:16:49;;;;;;;3.43;1.10;;;21.60;58.50;;;;;;5059408;28;20324;-44
2023/05/16 00:19:19;;;;;;;3.00;1.23;;;21.70;58.60;;;;;;5056089;28;20208;-44
2023/05/16 00:21:50;;;;;;;3.70;1.00;;;21.60;58.70;;;;;;5056729;28;20197;-44
2023/05/16 00:24:17;;;;;;;3.93;1.30;;;21.60;58.70;;;;;;5061176;28;20208;-44
2023/05/16 00:26:47;;;;;;;2.80;1.27;;;21.60;58.80;;;;;;5058087;28;20205;-44
2023/05/16 00:29:23;;;;;;;3.07;1.20;;;21.60;58.90;;;;;;5067918;28;20237;-45
2023/05/16 00:31:56;;;;;;;3.87;1.10;;;21.60;58.80;;;;;;5066601;28;20209;-45
2023/05/16 00:34:27;;;;;;;4.43;1.20;;;21.60;59.10;;;;;;5063699;28;20249;-44
2023/05/16 00:36:54;;;;;;;3.03;1.10;;;21.50;59.10;;;;;;5066910;28;20212;-44
2023/05/16 00:39:24;;;;;;;2.77;1.30;;;21.50;59.10;;;;;;5067448;28;20190;-44
2023/05/16 00:41:57;;;;;;;2.43;1.10;;;21.60;58.90;;;;;;5062184;28;20642;-44
2023/05/16 00:44:28;;;;;;;2.60;1.30;;;21.50;59.00;;;;;;5068091;28;20273;-44
2023/05/16 00:47:02;;;;;;;3.40;1.10;;;21.50;59.00;;;;;;5050297;28;20193;-44
2023/05/16 00:49:34;;;;;;;4.17;1.43;;;21.50;58.90;;;;;;5068275;28;20692;-44
2023/05/16 00:52:05;;;;;;;3.63;1.30;;;21.50;59.00;;;;;;5059209;28;20201;-44
2023/05/16 00:54:37;;;;;;;3.87;1.23;;;21.50;58.90;;;;;;5059040;28;20213;-44
2023/05/16 00:57:15;;;;;;;2.83;1.30;;;21.50;58.90;;;;;;5066698;28;20213;-44
2023/05/16 00:59:57;;;;;;;2.27;1.10;;;21.50;58.90;;;;;;5063637;28;20265;-44
2023/05/16 01:02:28;;;;;;;3.73;1.37;;;21.50;58.80;;;;;;5050295;28;20210;-44
2023/05/16 01:05:07;;;;;;;3.30;1.50;;;21.50;58.90;;;;;;5055081;28;20514;-44
2023/05/16 01:07:43;;;;;;;1.97;0.93;;;21.50;58.90;;;;;;5064485;28;20248;-44
2023/05/16 01:10:14;;;;;;;3.30;1.27;;;21.50;58.80;;;;;;5058337;28;20566;-45
2023/05/16 01:13:21;;;;;;;3.30;1.57;;;21.40;59.40;;;;;;5067931;28;20241;-44
2023/05/16 01:16:03;;;;;;;5.90;1.40;;;21.40;58.80;;;;;;5031958;28;20257;-44
2023/05/16 01:19:15;;;;;;;3.37;1.53;;;21.40;58.80;;;;;;5064586;28;20210;-45
2023/05/16 01:22:05;;;;;;;3.63;1.37;;;21.40;58.70;;;;;;5060854;28;20223;-45
2023/05/16 01:25:13;;;;;;;4.83;1.57;;;21.40;58.80;;;;;;5046179;28;20224;-45
2023/05/16 01:27:45;;;;;;;4.00;1.60;;;21.40;58.70;;;;;;5056341;28;20257;-45
2023/05/16 01:30:23;;;;;;;2.97;1.50;;;21.40;58.60;;;;;;4995398;28;20578;-45
2023/05/16 01:32:54;;;;;;;3.93;1.30;;;21.30;58.60;;;;;;5029802;28;20225;-44
2023/05/16 01:35:26;;;;;;;4.90;1.47;;;21.30;58.70;;;;;;5043749;28;20256;-44
2023/05/16 01:38:37;;;;;;;4.00;1.60;;;21.30;58.60;;;;;;5048755;28;20790;-45
2023/05/16 01:41:48;;;;;;;4.37;1.80;;;21.30;58.50;;;;;;4981115;28;20322;-44
2023/05/16 01:44:45;;;;;;;4.47;1.50;;;21.30;58.70;;;;;;5038357;28;20214;-44
2023/05/16 01:47:22;;;;;;;4.53;1.60;;;21.30;58.80;;;;;;5050060;28;20194;-44
2023/05/16 01:50:09;;;;;;;2.87;1.10;;;21.30;58.80;;;;;;5023958;28;20528;-44
2023/05/16 01:53:04;;;;;;;3.30;1.53;;;21.30;59.60;;;;;;5047256;28;20594;-45
2023/05/16 01:55:50;;;;;;;4.77;1.70;;;21.30;59.60;;;;;;5040693;28;20589;-44
2023/05/16 01:58:33;;;;;;;2.57;1.40;;;21.30;58.90;;;;;;5038326;28;20218;-44
2023/05/16 02:01:03;;;;;;;4.00;1.30;;;21.20;58.90;;;;;;5020080;28;20187;-44
2023/05/16 02:03:51;;;;;;;4.73;1.60;;;21.30;58.90;;;;;;5038975;28;20195;-44
2023/05/16 02:06:22;;;;;;;5.27;1.53;;;21.20;59.00;;;;;;5046520;28;20267;-44
2023/05/16 02:08:51;;;;;;;5.50;1.83;;;21.20;59.00;;;;;;5050593;28;20555;-44
2023/05/16 02:11:22;;;;;;;5.37;1.60;;;21.20;59.00;;;;;;5036194;28;20214;-44
2023/05/16 02:13:53;;;;;;;5.60;1.93;;;21.20;59.20;;;;;;5034668;28;20569;-44
2023/05/16 02:16:22;;;;;;;4.93;1.47;;;21.20;59.10;;;;;;5050580;28;20217;-44
2023/05/16 02:18:49;;;;;;;3.67;1.53;;;21.20;59.10;;;;;;5046575;28;20279;-44
2023/05/16 02:21:20;;;;;;;6.13;1.73;;;21.20;59.20;;;;;;5051788;28;20203;-44
2023/05/16 02:23:49;;;;;;;4.67;1.70;;;21.20;59.20;;;;;;5048287;28;20190;-44
2023/05/16 02:26:18;;;;;;;5.97;1.70;;;21.20;59.20;;;;;;5046867;28;20217;-44
2023/05/16 02:28:53;;;;;;;4.57;1.70;;;21.20;59.40;;;;;;5059200;28;20543;-44
2023/05/16 02:31:34;;;;;;;3.63;1.60;;;21.20;59.20;;;;;;5068805;28;20225;-44
2023/05/16 02:34:06;;;;;;;3.20;1.40;;;21.20;59.20;;;;;;5047869;28;20186;-43
2023/05/16 02:36:35;;;;;;;4.93;1.60;;;21.20;59.30;;;;;;5069377;28;20734;-44
2023/05/16 02:39:09;;;;;;;4.17;1.43;;;21.20;59.20;;;;;;5049649;28;20201;-44
2023/05/16 02:41:43;;;;;;;2.53;1.30;;;21.20;59.30;;;;;;5074132;28;20718;-44
2023/05/16 02:44:15;;;;;;;3.93;1.20;;;21.10;59.20;;;;;;5067343;28;20312;-44
2023/05/16 02:46:46;;;;;;;3.73;1.17;;;21.10;59.20;;;;;;5070254;28;20201;-44
2023/05/16 02:49:16;;;;;;;3.93;1.20;;;21.20;59.30;;;;;;5069866;28;20672;-44
2023/05/16 02:51:47;;;;;;;3.93;1.57;;;21.10;59.30;;;;;;5072522;28;20190;-44
2023/05/16 02:54:15;;;;;;;3.30;1.40;;;21.10;59.30;;;;;;5064460;28;20189;-44
2023/05/16 02:56:46;;;;;;;3.57;1.40;;;21.10;59.30;;;;;;5054890;28;20212;-44
2023/05/16 02:59:32;;;;;;;4.00;1.83;;;21.10;59.40;;;;;;5068925;28;20209;-44
2023/05/16 03:02:02;;;;;;;3.30;1.37;;;21.10;59.30;;;;;;5065689;28;20190;-44
2023/05/16 03:04:35;;;;;;;4.67;1.47;;;21.00;59.30;;;;;;5053084;28;20193;-44
2023/05/16 03:07:05;;;;;;;3.60;1.30;;;21.10;59.30;;;;;;5063468;28;20209;-44
2023/05/16 03:09:33;;;;;;;5.03;1.50;;;21.00;59.30;;;;;;5066368;28;20619;-44
2023/05/16 03:12:04;;;;;;;3.70;1.43;;;21.00;59.30;;;;;;5063417;28;20231;-44
2023/05/16 03:14:36;;;;;;;3.77;1.40;;;21.10;59.40;;;;;;5055869;28;20214;-44
2023/05/16 03:17:05;;;;;;;6.40;1.70;;;21.00;59.30;;;;;;5066795;28;20225;-44
2023/05/16 03:19:35;;;;;;;3.37;1.37;;;21.00;59.30;;;;;;5064747;28;20208;-44
2023/05/16 03:22:06;;;;;;;4.60;1.47;;;21.00;59.30;;;;;;5062802;28;20194;-44
2023/05/16 03:24:38;;;;;;;5.60;1.90;;;21.00;59.30;;;;;;5064213;28;20186;-44
2023/05/16 03:27:06;;;;;;;3.70;1.27;;;21.10;59.30;;;;;;5064913;28;20692;-43
2023/05/16 03:29:40;;;;;;;3.80;1.30;;;21.00;59.20;;;;;;5052576;28;20631;-45
2023/05/16 03:32:10;;;;;;;3.93;1.47;;;21.00;59.20;;;;;;5063867;28;20703;-45
2023/05/16 03:34:41;;;;;;;4.63;1.40;;;21.00;59.10;;;;;;5036033;28;20205;-45
2023/05/16 03:37:15;;;;;;;4.90;1.43;;;21.00;59.10;;;;;;5067669;28;20221;-45
2023/05/16 03:39:45;;;;;;;5.43;1.67;;;21.00;59.10;;;;;;5068854;28;20206;-45
2023/05/16 03:42:16;;;;;;;7.03;1.47;;;21.00;59.20;;;;;;5064265;28;20224;-44
2023/05/16 03:44:47;;;;;;;3.00;1.40;;;21.00;59.10;;;;;;5068839;28;20258;-44
2023/05/16 03:47:18;;;;;;;4.03;1.40;;;21.00;59.20;;;;;;5068651;28;20208;-45
2023/05/16 03:49:52;;;;;;;4.37;1.40;;;20.90;59.10;;;;;;5068185;28;20775;-44
2023/05/16 03:52:22;;;;;;;5.30;1.60;;;21.00;59.10;;;;;;5067135;28;20198;-43
2023/05/16 03:54:51;;;;;;;3.87;1.47;;;20.90;59.00;;;;;;5065868;28;20574;-44
2023/05/16 03:57:22;;;;;;;4.17;1.30;;;20.90;59.10;;;;;;5068302;28;20267;-43
2023/05/16 03:59:55;;;;;;;4.73;1.63;;;20.90;59.00;;;;;;5066712;28;20193;-43
2023/05/16 04:02:25;;;;;;;3.43;1.30;;;20.90;59.60;;;;;;5055434;28;20210;-45
2023/05/16 04:04:55;;;;;;;3.70;1.30;;;20.90;59.10;;;;;;5067286;28;20212;-45
2023/05/16 04:07:26;;;;;;;5.43;1.50;;;20.90;59.70;;;;;;5063679;28;20209;-44
2023/05/16 04:09:57;;;;;;;3.73;1.37;;;20.90;59.10;;;;;;5066180;28;20316;-44
2023/05/16 04:12:28;;;;;;;2.87;1.27;;;20.90;59.00;;;;;;5068581;28;20505;-45
2023/05/16 04:14:58;;;;;;;4.40;1.57;;;20.90;59.00;;;;;;5067847;28;20697;-45
2023/05/16 04:17:28;;;;;;;5.63;1.40;;;20.90;59.00;;;;;;5067341;28;20526;-45
2023/05/16 04:20:03;;;;;;;2.93;1.23;;;20.90;59.00;;;;;;5062507;28;20327;-45
2023/05/16 04:22:37;;;;;;;3.33;1.57;;;20.80;58.80;;;;;;5066573;28;20194;-45
2023/05/16 04:25:10;;;;;;;3.47;1.27;;;20.90;58.90;;;;;;5061982;28;20220;-44
2023/05/16 04:27:43;;;;;;;3.70;1.37;;;20.80;58.80;;;;;;5069051;28;20252;-44
2023/05/16 04:30:14;;;;;;;3.90;1.10;;;20.80;58.90;;;;;;5053970;28;20213;-44
2023/05/16 04:32:44;;;;;;;5.20;1.10;;;20.80;58.80;;;;;;5051759;28;20213;-44
2023/05/16 04:35:17;;;;;;;4.77;1.30;;;20.80;58.80;;;;;;5068385;28;20208;-44
2023/05/16 04:37:45;;;;;;;4.60;1.03;;;20.80;58.80;;;;;;5050015;28;20278;-44
2023/05/16 04:40:17;;;;;;;3.43;1.20;;;20.80;58.80;;;;;;5065630;28;20209;-44
2023/05/16 04:42:49;;;;;;;5.27;1.57;;;20.80;58.80;;;;;;5065849;28;20210;-44
2023/05/16 04:45:18;;;;;;;3.67;1.20;;;20.80;58.80;;;;;;5068911;28;20212;-44
2023/05/16 04:47:49;;;;;;;4.03;1.47;;;20.80;58.80;;;;;;5068094;28;20647;-45
2023/05/16 04:50:22;;;;;;;4.33;1.43;;;20.80;58.80;;;;;;5069263;28;20217;-45
2023/05/16 04:52:52;;;;;;;4.90;1.43;;;20.80;58.80;;;;;;5066984;28;20197;-44
2023/05/16 04:55:23;;;;;;;4.60;1.00;;;20.80;58.80;;;;;;5065127;28;20703;-44
2023/05/16 04:57:56;;;;;;;3.40;0.90;;;20.80;58.80;;;;;;5064183;28;20217;-44
2023/05/16 05:00:41;;;;;;;4.60;1.50;;;20.80;58.90;;;;;;5067382;28;20234;-44
2023/05/16 05:03:13;;;;;;;3.40;1.07;;;20.70;58.80;;;;;;5072164;28;20228;-44
2023/05/16 05:05:39;;;;;;;2.33;1.07;;;20.70;58.70;;;;;;5074572;28;20255;-43
2023/05/16 05:08:09;;;;;;;3.93;1.17;;;20.70;58.80;;;;;;5071850;28;20209;-43
2023/05/16 05:10:42;;;;;;;4.20;1.37;;;20.70;58.80;;;;;;5076094;28;20197;-44
2023/05/16 05:13:13;;;;;;;6.37;1.30;;;20.70;58.80;;;;;;5072310;28;20201;-44
2023/05/16 05:15:44;;;;;;;5.00;1.53;;;20.70;58.70;;;;;;5071563;28;20182;-44
2023/05/16 05:18:14;;;;;;;4.97;1.13;;;20.70;58.80;;;;;;5066499;28;20256;-44
2023/05/16 05:20:45;;;;;;;3.07;1.10;;;20.70;58.70;;;;;;5053668;28;20539;-43
2023/05/16 05:23:17;;;;;;;4.67;1.47;;;20.70;58.80;;;;;;5071045;28;20232;-43
2023/05/16 05:25:46;;;;;;;3.57;1.70;;;20.60;59.30;;;;;;5063521;28;20195;-44
2023/05/16 05:28:17;;;;;;;4.87;1.50;;;20.60;58.70;;;;;;5069111;28;20402;-44
2023/05/16 05:30:47;;;;;;;3.13;1.33;;;20.70;58.70;;;;;;5070355;28;20212;-44
2023/05/16 05:33:17;;;;;;;2.80;1.37;;;20.70;58.70;;;;;;5071647;28;20206;-43
2023/05/16 05:35:50;;;;;;;2.77;1.30;;;20.60;58.60;;;;;;5071507;28;20734;-44
2023/05/16 05:38:21;;;;;;;3.63;1.47;;;20.60;58.60;;;;;;5070803;28;20251;-43
2023/05/16 05:40:51;;;;;;;4.80;1.50;;;20.60;58.60;;;;;;5071666;28;20205;-44
2023/05/16 05:43:34;;;;;;;5.40;1.50;;;20.60;58.60;;;;;;5068319;28;20304;-44
2023/05/16 05:46:08;;;;;;;3.23;1.10;;;20.60;58.50;;;;;;5046456;28;20202;-45
2023/05/16 05:48:40;;;;;;;3.43;1.23;;;20.60;58.50;;;;;;5069713;28;20205;-45
2023/05/16 05:51:12;;;;;;;4.23;1.43;;;20.60;58.40;;;;;;5059817;28;20197;-45
2023/05/16 05:53:45;;;;;;;5.20;1.60;;;20.60;58.40;;;;;;5067207;28;20270;-45
2023/05/16 05:56:16;;;;;;;4.07;1.40;;;20.60;58.50;;;;;;5047274;28;20291;-44
2023/05/16 05:58:46;;;;;;;3.60;1.40;;;20.60;58.50;;;;;;5070732;28;20210;-44
2023/05/16 06:01:15;;;;;;;5.20;1.50;;;20.60;58.60;;;;;;5064248;28;20269;-44
2023/05/16 06:03:45;;;;;;;4.70;1.53;;;20.60;58.80;;;;;;5041471;28;20197;-44
2023/05/16 06:06:18;;;;;;;2.73;1.10;;;20.60;58.60;;;;;;5065582;28;20205;-45
2023/05/16 06:08:48;;;;;;;6.20;1.40;;;20.50;58.60;;;;;;5070337;28;20212;-45
2023/05/16 06:11:20;;;;;;;7.23;1.40;;;20.60;58.80;;;;;;5070951;28;20234;-44
2023/05/16 06:13:51;;;;;;;5.80;1.57;;;20.60;58.70;;;;;;5070571;28;20524;-44
2023/05/16 06:16:24;;;;;;;4.30;1.43;;;20.50;58.50;;;;;;5051981;28;20697;-45
2023/05/16 06:18:54;;;;;;;4.50;1.30;;;20.50;58.50;;;;;;5050102;28;20283;-45
2023/05/16 06:21:27;;;;;;;3.63;1.57;;;20.50;58.50;;;;;;5070009;28;20201;-45
2023/05/16 06:23:59;;;;;;;6.07;1.40;;;20.60;58.40;;;;;;5056900;28;20194;-45
2023/05/16 06:26:32;;;;;;;4.40;1.20;;;20.50;58.40;;;;;;5067934;28;20539;-45
2023/05/16 06:29:02;;;;;;;6.77;1.47;;;20.50;58.30;;;;;;5071364;28;20577;-44
2023/05/16 06:31:32;;;;;;;4.03;1.67;;;20.50;58.00;;;;;;5068076;28;20271;-44
2023/05/16 06:34:03;;;;;;;3.77;1.23;;;20.50;57.90;;;;;;5063536;28;20216;-45
2023/05/16 06:36:37;;;;;;;10.20;1.90;;;20.60;57.80;;;;;;5058677;28;20194;-45
2023/05/16 06:39:07;;;;;;;7.07;1.40;;;20.60;57.70;;;;;;5064965;28;20232;-45
2023/05/16 06:41:33;;;;;;;5.30;1.50;;;20.60;57.70;;;;;;5051228;28;20202;-44
2023/05/16 06:44:05;;;;;;;7.83;1.47;;;20.60;57.70;;;;;;5064419;28;20216;-44
2023/05/16 06:46:33;;;;;;;7.47;1.57;;;20.50;57.40;;;;;;5070653;28;20765;-43
2023/05/16 06:49:06;;;;;;;4.40;1.43;;;20.50;57.60;;;;;;5070781;28;20255;-44
2023/05/16 06:51:37;;;;;;;9.37;1.60;;;20.50;57.50;;;;;;5060387;28;20700;-43
2023/05/16 06:54:06;;;;;;;6.90;1.50;;;20.50;57.20;;;;;;5054900;28;20701;-43
2023/05/16 06:56:36;;;;;;;6.13;1.90;;;20.50;57.10;;;;;;5059115;28;20189;-43
2023/05/16 06:59:07;;;;;;;9.47;2.10;;;20.60;57.60;;;;;;5068122;28;20248;-44
2023/05/16 07:01:36;;;;;;;4.80;1.43;;;20.70;57.80;;;;;;5052686;28;20214;-43
2023/05/16 07:04:08;;;;;;;3.63;1.20;;;20.80;58.10;;;;;;5045567;28;20201;-44
2023/05/16 07:06:39;;;;;;;5.70;1.30;;;20.80;58.10;;;;;;5062427;28;20540;-44
2023/05/16 07:09:08;;;;;;;5.83;1.30;;;20.90;58.00;;;;;;5056344;28;20611;-44
2023/05/16 07:11:38;;;;;;;5.67;1.27;;;20.90;58.20;;;;;;5067100;28;20638;-44
2023/05/16 07:14:09;;;;;;;5.67;1.70;;;21.00;58.10;;;;;;5063233;28;20228;-44
2023/05/16 07:16:39;;;;;;;5.00;1.17;;;21.10;58.00;;;;;;5051268;28;20194;-43
2023/05/16 07:19:09;;;;;;;10.13;1.20;;;21.20;57.70;;;;;;5057997;28;20269;-44
2023/05/16 07:21:39;;;;;;;4.93;1.37;;;21.30;57.60;;;;;;5069317;28;20193;-44
2023/05/16 07:24:10;;;;;;;4.60;1.20;;;21.40;57.30;;;;;;5047195;28;20209;-44
2023/05/16 07:26:42;;;;;;;6.70;1.87;;;21.50;56.90;;;;;;5062323;28;20576;-44
2023/05/16 07:29:14;;;;;;;5.00;1.20;;;21.50;56.80;;;;;;5064970;28;20236;-44
2023/05/16 07:31:45;;;;;;;4.60;1.00;;;21.60;56.70;;;;;;5063554;28;20214;-44
2023/05/16 07:34:16;;;;;;;5.63;1.20;;;21.70;56.80;;;;;;5047909;28;20198;-44
2023/05/16 07:36:46;;;;;;;5.20;1.30;;;21.90;56.50;;;;;;5068360;28;20193;-44
2023/05/16 07:39:17;;;;;;;4.20;1.50;;;21.90;56.10;;;;;;5064992;28;20212;-44
2023/05/16 07:41:48;;;;;;;4.10;1.43;;;21.90;56.30;;;;;;5050719;28;20194;-44
2023/05/16 07:44:31;;;;;;;6.53;1.50;;;22.00;55.90;;;;;;5046843;28;20754;-44
2023/05/16 07:46:59;;;;;;;3.77;1.10;;;22.10;56.10;;;;;;5065059;28;20543;-44
2023/05/16 07:49:30;;;;;;;5.67;1.10;;;22.20;55.50;;;;;;5047393;28;20749;-44
2023/05/16 07:52:01;;;;;;;5.23;1.27;;;22.20;55.40;;;;;;5065087;28;20193;-44
2023/05/16 07:54:34;;;;;;;3.47;1.30;;;22.30;55.10;;;;;;5047834;28;20219;-44
2023/05/16 07:57:06;;;;;;;3.17;1.20;;;22.40;54.70;;;;;;5047141;28;20190;-44
2023/05/16 07:59:35;;;;;;;3.73;1.53;;;22.40;54.50;;;;;;5057336;28;20210;-44
2023/05/16 08:02:06;;;;;;;3.80;1.27;;;22.40;54.60;;;;;;5048071;28;20623;-45
2023/05/16 08:04:38;;;;;;;5.70;1.30;;;22.50;54.40;;;;;;5049443;28;20267;-45
2023/05/16 08:07:09;;;;;;;3.20;1.40;;;22.50;54.60;;;;;;5063710;28;20208;-45
2023/05/16 08:09:42;;;;;;;3.03;1.03;;;22.60;54.50;;;;;;5067198;28;20197;-45
2023/05/16 08:12:14;;;;;;;2.53;1.20;;;22.60;54.40;;;;;;5063992;28;20220;-44
2023/05/16 08:14:41;;;;;;;1.83;1.00;;;22.60;54.30;;;;;;5050748;28;20656;-44
2023/05/16 08:17:11;;;;;;;3.90;0.97;;;22.70;54.40;;;;;;5044034;28;20202;-44
2023/05/16 08:19:43;;;;;;;5.37;1.20;;;22.70;54.10;;;;;;5054695;28;20265;-44
2023/05/16 08:22:19;;;;;;;4.30;1.00;;;22.70;54.30;;;;;;5064429;28;20200;-44
2023/05/16 08:24:48;;;;;;;4.63;1.00;;;22.80;53.70;;;;;;5064807;28;20547;-44
2023/05/16 08:27:17;;;;;;;4.33;1.00;;;22.80;53.40;;;;;;5046613;28;20202;-44
2023/05/16 08:29:45;;;;;;;3.80;1.00;;;22.70;52.60;;;;;;5024278;28;20214;-44
2023/05/16 08:32:18;;;;;;;1.77;0.90;;;22.60;53.00;;;;;;5063597;28;20910;-44
2023/05/16 08:34:47;;;;;;;3.80;1.10;;;22.50;53.10;;;;;;5052604;28;20246;-44
2023/05/16 08:37:17;;;;;;;8.23;1.07;;;22.50;53.50;;;;;;5071028;28;20190;-45
2023/05/16 08:39:47;;;;;;;4.50;1.30;;;22.50;53.70;;;;;;5075444;28;20228;-45
2023/05/16 08:42:16;;;;;;;3.40;0.87;;;22.40;53.80;;;;;;5069637;28;20785;-44
2023/05/16 08:44:47;;;;;;;1.73;0.90;;;22.30;53.80;;;;;;5055471;28;20196;-44
2023/05/16 08:47:40;;;;;;;3.97;1.07;;;22.20;53.70;;;;;;5064121;28;20213;-44
2023/05/16 08:50:16;;;;;;;5.40;1.20;;;22.20;53.70;;;;;;5067736;28;20209;-44
2023/05/16 08:52:53;;;;;;;4.10;1.40;;;22.30;53.00;;;;;;5042927;28;20205;-44
2023/05/16 08:55:32;;;;;;;3.27;1.03;;;22.40;52.90;;;;;;5044948;28;20243;-44
2023/05/16 08:58:04;;;;;;;5.43;1.40;;;22.40;53.00;;;;;;5054110;28;20818;-44
2023/05/16 09:00:35;;;;;;;5.33;1.27;;;22.40;53.40;;;;;;5067282;28;20194;-44
2023/05/16 09:03:05;;;;;;;2.90;1.13;;;22.50;53.60;;;;;;5048696;28;20632;-44
2023/05/16 09:05:37;;;;;;;1.87;1.10;;;22.50;53.80;;;;;;5061066;28;20259;-45
2023/05/16 09:08:07;;;;;;;4.13;1.10;;;22.60;53.50;;;;;;5044036;28;20214;-45
2023/05/16 09:10:39;;;;;;;4.37;1.00;;;22.60;53.30;;;;;;5065414;28;20631;-44
2023/05/16 09:13:09;;;;;;;5.23;1.20;;;22.60;53.40;;;;;;5064750;28;20190;-44
2023/05/16 09:15:38;;;;;;;3.77;1.10;;;22.60;53.40;;;;;;5071363;28;20198;-44
2023/05/16 09:18:13;;;;;;;3.83;1.13;;;22.70;53.20;;;;;;5060791;28;20209;-44
2023/05/16 09:20:52;;;;;;;7.37;1.50;;;22.70;53.20;;;;;;5066662;28;20229;-44
2023/05/16 09:23:24;;;;;;;3.90;0.90;;;22.70;53.10;;;;;;5048558;28;20206;-44
2023/05/16 09:25:56;;;;;;;5.53;1.10;;;22.70;53.50;;;;;;5061929;28;20194;-44
2023/05/16 09:28:27;;;;;;;6.93;1.47;;;22.80;53.20;;;;;;5053597;28;20245;-45
2023/05/16 09:31:01;;;;;;;6.73;1.17;;;22.80;53.00;;;;;;5066048;28;20221;-44
2023/05/16 09:33:32;;;;;;;4.67;1.30;;;22.80;53.30;;;;;;5069740;28;20193;-44
2023/05/16 09:36:02;;;;;;;2.60;1.07;;;22.80;53.10;;;;;;5068781;28;20197;-45
2023/05/16 09:38:35;;;;;;;3.47;1.20;;;22.80;53.10;;;;;;5062327;28;20229;-45
2023/05/16 09:41:08;;;;;;;5.07;1.23;;;22.90;52.40;;;;;;5071340;28;20201;-50
2023/05/16 09:43:40;;;;;;;2.23;0.80;;;22.90;52.70;;;;;;5062820;28;20217;-45
2023/05/16 09:46:18;;;;;;;4.20;0.90;;;22.90;52.50;;;;;;5065946;28;20205;-44
2023/05/16 09:48:50;;;;;;;3.90;1.00;;;22.90;52.50;;;;;;5069911;28;20821;-44
2023/05/16 09:51:22;;;;;;;6.13;1.63;;;22.90;52.20;;;;;;5068979;28;20198;-44
2023/05/16 09:54:11;;;;;;;6.97;1.63;;;23.00;52.40;;;;;;5064671;28;20202;-44
2023/05/16 09:56:50;;;;;;;8.90;1.47;;;23.00;52.50;;;;;;5069359;28;20197;-44
2023/05/16 09:59:39;;;;;;;10.63;2.13;;;23.00;52.50;;;;;;5070336;28;20221;-45
2023/05/16 10:02:14;;;;;;;9.00;1.93;;;23.10;52.20;;;;;;5044700;28;20201;-45
2023/05/16 10:04:49;;;;;;;8.63;2.03;;;23.10;52.00;;;;;;5070539;28;20209;-44
2023/05/16 10:07:20;;;;;;;10.80;2.00;;;23.10;51.60;;;;;;5059334;28;20210;-44
2023/05/16 10:09:52;;;;;;;6.23;1.40;;;23.10;51.90;;;;;;5060121;28;20254;-44
2023/05/16 10:12:26;;;;;;;4.07;1.30;;;23.10;51.00;;;;;;5064535;28;20852;-45
2023/05/16 10:14:55;;;;;;;3.83;1.23;;;23.00;51.10;;;;;;5070497;28;20333;-45
2023/05/16 10:17:28;;;;;;;6.53;1.50;;;22.90;51.80;;;;;;5069717;28;20645;-45
2023/05/16 10:20:06;;;;;;;5.53;1.27;;;22.80;51.90;;;;;;5064030;28;20330;-45
2023/05/16 10:22:43;;;;;;;3.27;1.07;;;22.80;52.70;;;;;;5062269;28;20197;-45
2023/05/16 10:25:32;;;;;;;3.77;1.03;;;22.70;52.40;;;;;;5068058;28;20185;-45
2023/05/16 10:28:02;;;;;;;2.97;0.90;;;22.70;52.80;;;;;;5055695;28;20242;-44
2023/05/16 10:30:39;;;;;;;2.33;1.00;;;22.60;52.70;;;;;;5039999;28;20237;-45
2023/05/16 10:33:18;;;;;;;4.97;1.10;;;22.60;52.90;;;;;;5045549;28;20283;-45
2023/05/16 10:35:53;;;;;;;7.43;1.57;;;22.60;52.60;;;;;;5017729;28;20643;-45
2023/05/16 10:38:26;;;;;;;3.27;1.27;;;22.50;52.60;;;;;;5048694;28;20202;-45
2023/05/16 10:40:56;;;;;;;3.67;1.13;;;22.50;52.70;;;;;;5038656;28;20198;-44
2023/05/16 10:43:29;;;;;;;2.73;1.20;;;22.50;52.90;;;;;;5025972;28;20194;-44
2023/05/16 10:46:08;;;;;;;4.23;1.30;;;22.50;52.80;;;;;;5028238;28;20191;-44
2023/05/16 10:48:41;;;;;;;2.37;0.90;;;22.40;52.80;;;;;;5030359;28;20194;-44
2023/05/16 10:51:36;;;;;;;3.90;1.10;;;22.40;52.80;;;;;;5024688;28;20190;-45
2023/05/16 10:54:17;;;;;;;3.37;0.80;;;22.40;52.90;;;;;;5041007;28;20870;-45
2023/05/16 10:56:56;;;;;;;3.90;1.30;;;22.40;52.80;;;;;;5048347;28;20195;-43
2023/05/16 10:59:38;;;;;;;1.73;0.97;;;22.40;52.40;;;;;;5028187;28;20737;-44
2023/05/16 11:02:29;;;;;;;3.93;1.13;;;22.40;52.50;;;;;;5045148;28;20569;-44
2023/05/16 11:04:59;;;;;;;5.13;0.83;;;22.40;52.30;;;;;;5042888;28;20194;-44
2023/05/16 11:07:35;;;;;;;2.40;1.10;;;22.50;52.20;;;;;;5035982;28;20202;-45
2023/05/16 11:10:15;;;;;;;2.47;0.87;;;22.40;52.20;;;;;;5007614;28;20201;-44
2023/05/16 11:12:54;;;;;;;3.37;1.00;;;22.40;52.20;;;;;;5029869;28;20214;-45
2023/05/16 11:15:33;;;;;;;1.00;0.83;;;22.50;51.40;;;;;;5048381;28;20248;-44
2023/05/16 11:18:15;;;;;;;3.27;1.23;;;22.60;51.10;;;;;;5036502;28;20197;-43
2023/05/16 11:21:01;;;;;;;2.13;0.77;;;22.60;50.60;;;;;;5022998;28;20682;-45
2023/05/16 11:23:32;;;;;;;2.93;0.80;;;22.70;51.70;;;;;;5048164;28;20205;-45
2023/05/16 11:26:03;;;;;;;1.17;0.73;;;22.70;51.90;;;;;;5041964;28;20544;-44
2023/05/16 11:28:37;;;;;;;4.33;0.90;;;22.70;51.90;;;;;;5039592;28;20241;-45
2023/05/16 11:31:08;;;;;;;4.20;0.93;;;22.80;51.90;;;;;;5045033;28;20203;-44
2023/05/16 11:33:39;;;;;;;1.53;0.70;;;22.80;51.70;;;;;;5036619;28;20199;-44
2023/05/16 11:36:11;;;;;;;3.33;0.80;;;22.90;50.80;;;;;;5038694;28;20186;-44
2023/05/16 11:38:43;;;;;;;2.33;0.90;;;22.90;51.60;;;;;;5034842;28;20210;-44
2023/05/16 11:41:16;;;;;;;3.50;1.00;;;22.90;51.30;;;;;;5048253;28;20233;-44
2023/05/16 11:43:46;;;;;;;4.20;0.90;;;23.00;49.90;;;;;;5044663;28;20214;-45
2023/05/16 11:46:15;;;;;;;2.03;0.80;;;23.00;50.20;;;;;;5033978;28;20633;-43
2023/05/16 11:48:59;;;;;;;3.17;0.77;;;23.00;49.60;;;;;;5048068;28;20214;-43
2023/05/16 11:51:30;;;;;;;5.03;1.30;;;23.10;50.70;;;;;;5049274;28;20194;-44
2023/05/16 11:53:58;;;;;;;7.93;1.30;;;23.10;50.80;;;;;;5024128;28;20646;-45
2023/05/16 11:56:31;;;;;;;8.67;1.10;;;23.10;49.70;;;;;;5023741;28;20206;-44
2023/05/16 11:59:03;;;;;;;4.47;1.20;;;23.10;50.50;;;;;;5031044;28;20190;-44
2023/05/16 12:01:34;;;;;;;8.43;1.40;;;23.10;50.10;;;;;;5031302;28;20335;-45
2023/05/16 12:04:13;;;;;;;4.37;1.13;;;23.20;49.40;;;;;;5025441;28;20209;-45
2023/05/16 12:06:59;;;;;;;5.90;0.80;;;23.20;50.00;;;;;;5014632;28;20190;-44
2023/05/16 12:09:26;;;;;;;3.80;1.23;;;23.20;49.40;;;;;;5046313;28;20214;-44
2023/05/16 12:11:56;;;;;;;3.27;1.00;;;23.30;48.80;;;;;;5028486;28;20630;-45
2023/05/16 12:14:28;;;;;;;5.53;1.23;;;23.30;49.20;;;;;;5048452;28;20279;-44
2023/05/16 12:17:03;;;;;;;3.90;1.00;;;23.40;49.40;;;;;;5044590;28;20202;-45
2023/05/16 12:19:47;;;;;;;6.10;1.30;;;23.50;49.50;;;;;;5044155;28;20313;-46
2023/05/16 12:22:20;;;;;;;4.80;1.03;;;23.50;49.10;;;;;;5027255;28;20385;-44
2023/05/16 12:24:52;;;;;;;3.17;1.10;;;23.60;49.40;;;;;;5047413;28;20222;-44
2023/05/16 12:27:33;;;;;;;7.23;1.30;;;23.60;50.30;;;;;;5045473;28;20194;-44
2023/05/16 12:30:08;;;;;;;3.40;0.90;;;23.60;49.40;;;;;;5063127;28;20221;-44
2023/05/16 12:32:39;;;;;;;2.43;1.00;;;23.70;49.50;;;;;;5064023;28;20198;-44
2023/05/16 12:35:10;;;;;;;2.20;0.97;;;23.70;49.60;;;;;;5067047;28;20197;-44
2023/05/16 12:37:42;;;;;;;4.60;0.83;;;23.70;49.70;;;;;;5067909;28;20201;-45
2023/05/16 12:40:12;;;;;;;2.47;1.00;;;23.80;49.20;;;;;;5051913;28;20237;-44
2023/05/16 12:42:51;;;;;;;3.00;0.80;;;23.80;49.70;;;;;;5067970;28;20512;-44
2023/05/16 12:45:28;;;;;;;2.57;1.00;;;23.80;49.30;;;;;;5036963;28;20190;-44
2023/05/16 12:48:12;;;;;;;1.83;0.70;;;23.80;49.30;;;;;;5065880;28;20255;-44
2023/05/16 12:50:45;;;;;;;4.17;1.33;;;23.80;48.90;;;;;;5044527;28;20291;-45
2023/05/16 12:53:23;;;;;;;3.90;0.97;;;23.80;48.40;;;;;;5042534;28;20330;-44
2023/05/16 12:55:52;;;;;;;2.00;1.13;;;23.80;48.90;;;;;;5054538;28;20209;-45
2023/05/16 12:58:22;;;;;;;5.37;1.03;;;23.80;48.00;;;;;;5048484;28;20251;-44
2023/05/16 13:00:55;;;;;;;3.13;1.10;;;23.80;48.70;;;;;;5067241;28;20231;-44
2023/05/16 13:03:26;;;;;;;3.67;1.23;;;23.80;49.00;;;;;;5065087;28;20535;-43
2023/05/16 13:05:59;;;;;;;1.67;0.70;;;23.80;45.80;;;;;;5059445;28;20188;-44
2023/05/16 13:08:29;;;;;;;1.57;0.70;;;23.70;48.50;;;;;;5063493;28;20202;-44
2023/05/16 13:10:57;;;;;;;2.40;0.90;;;23.60;49.90;;;;;;5048024;28;20197;-44
2023/05/16 13:13:29;;;;;;;2.47;0.90;;;23.50;50.20;;;;;;5068177;28;20211;-44
2023/05/16 13:16:04;;;;;;;2.33;1.00;;;23.50;50.40;;;;;;5064436;28;20216;-44
2023/05/16 13:18:35;;;;;;;2.27;1.10;;;23.30;50.50;;;;;;5043876;28;20206;-44